sensor_id;sensor_type;location;lat;lon;timestamp;P1;durP1;ratioP1;P2;durP2;ratioP2
33152;SDS011;19509;43.862;26.176;2024-02-26T00:01:09;0.80;;;0.80;;
33152;SDS011;19509;43.862;26.176;2024-02-26T00:03:34;1.00;;;1.00;;
33152;SDS011;19509;43.862;26.176;2024-02-26T00:06:01;0.90;;;0.90;;
33152;SDS011;19509;43.862;26.176;2024-02-26T00:08:26;0.93;;;0.87;;
33152;SDS011;19509;43.862;26.176;2024-02-26T00:10:51;0.80;;;0.80;;
33152;SDS011;19509;43.862;26.176;2024-02-26T00:13:17;0.80;;;0.80;;
33152;SDS011;19509;43.862;26.176;2024-02-26T00:15:42;0.80;;;0.80;;
33152;SDS011;19509;43.862;26.176;2024-02-26T00:18:08;0.70;;;0.70;;
33152;SDS011;19509;43.862;26.176;2024-02-26T00:20:33;1.00;;;1.00;;
33152;SDS011;19509;43.862;26.176;2024-02-26T00:22:58;1.00;;;1.00;;
33152;SDS011;19509;43.862;26.176;2024-02-26T00:25:24;0.80;;;0.80;;
33152;SDS011;19509;43.862;26.176;2024-02-26T00:27:49;0.80;;;0.80;;
33152;SDS011;19509;43.862;26.176;2024-02-26T00:30:15;1.10;;;1.10;;
33152;SDS011;19509;43.862;26.176;2024-02-26T00:32:40;1.00;;;1.00;;
33152;SDS011;19509;43.862;26.176;2024-02-26T00:35:06;1.00;;;1.00;;
33152;SDS011;19509;43.862;26.176;2024-02-26T00:37:31;1.00;;;1.00;;
33152;SDS011;19509;43.862;26.176;2024-02-26T00:39:57;0.90;;;0.90;;
33152;SDS011;19509;43.862;26.176;2024-02-26T00:42:22;1.07;;;1.07;;
33152;SDS011;19509;43.862;26.176;2024-02-26T00:44:48;0.90;;;0.90;;
33152;SDS011;19509;43.862;26.176;2024-02-26T00:47:13;1.13;;;1.13;;
33152;SDS011;19509;43.862;26.176;2024-02-26T00:49:38;1.00;;;1.00;;
33152;SDS011;19509;43.862;26.176;2024-02-26T00:52:04;0.90;;;0.90;;
33152;SDS011;19509;43.862;26.176;2024-02-26T00:54:29;0.90;;;0.90;;
33152;SDS011;19509;43.862;26.176;2024-02-26T00:56:55;1.20;;;1.20;;
33152;SDS011;19509;43.862;26.176;2024-02-26T00:59:20;1.10;;;1.10;;
33152;SDS011;19509;43.862;26.176;2024-02-26T01:01:46;1.20;;;1.20;;
33152;SDS011;19509;43.862;26.176;2024-02-26T01:04:11;1.00;;;1.00;;
33152;SDS011;19509;43.862;26.176;2024-02-26T01:06:37;0.90;;;0.90;;
33152;SDS011;19509;43.862;26.176;2024-02-26T01:09:02;1.00;;;1.00;;
33152;SDS011;19509;43.862;26.176;2024-02-26T01:11:28;1.10;;;1.10;;
33152;SDS011;19509;43.862;26.176;2024-02-26T01:13:53;1.00;;;1.00;;
33152;SDS011;19509;43.862;26.176;2024-02-26T01:16:21;0.90;;;0.90;;
33152;SDS011;19509;43.862;26.176;2024-02-26T01:18:46;1.00;;;1.00;;
33152;SDS011;19509;43.862;26.176;2024-02-26T01:21:12;1.00;;;1.00;;
33152;SDS011;19509;43.862;26.176;2024-02-26T01:23:38;1.00;;;1.00;;
33152;SDS011;19509;43.862;26.176;2024-02-26T01:26:03;1.10;;;1.00;;
33152;SDS011;19509;43.862;26.176;2024-02-26T01:28:29;0.83;;;0.83;;
33152;SDS011;19509;43.862;26.176;2024-02-26T01:30:55;1.00;;;1.00;;
33152;SDS011;19509;43.862;26.176;2024-02-26T01:33:20;0.90;;;0.90;;
33152;SDS011;19509;43.862;26.176;2024-02-26T01:35:45;0.80;;;0.80;;
33152;SDS011;19509;43.862;26.176;2024-02-26T01:38:11;0.83;;;0.83;;
33152;SDS011;19509;43.862;26.176;2024-02-26T01:40:37;0.90;;;0.90;;
33152;SDS011;19509;43.862;26.176;2024-02-26T01:43:02;0.90;;;0.90;;
33152;SDS011;19509;43.862;26.176;2024-02-26T01:45:28;0.80;;;0.80;;
33152;SDS011;19509;43.862;26.176;2024-02-26T01:47:53;1.00;;;1.00;;
33152;SDS011;19509;43.862;26.176;2024-02-26T01:50:19;1.07;;;1.07;;
33152;SDS011;19509;43.862;26.176;2024-02-26T01:52:45;1.10;;;1.10;;
33152;SDS011;19509;43.862;26.176;2024-02-26T01:55:12;0.83;;;0.83;;
33152;SDS011;19509;43.862;26.176;2024-02-26T01:57:39;0.80;;;0.80;;
33152;SDS011;19509;43.862;26.176;2024-02-26T02:00:04;1.00;;;1.00;;
33152;SDS011;19509;43.862;26.176;2024-02-26T02:02:31;1.03;;;1.00;;
33152;SDS011;19509;43.862;26.176;2024-02-26T02:04:56;0.77;;;0.77;;
33152;SDS011;19509;43.862;26.176;2024-02-26T02:07:21;0.90;;;0.90;;
33152;SDS011;19509;43.862;26.176;2024-02-26T02:09:48;0.87;;;0.87;;
33152;SDS011;19509;43.862;26.176;2024-02-26T02:12:13;0.93;;;0.93;;
33152;SDS011;19509;43.862;26.176;2024-02-26T02:14:39;0.90;;;0.90;;
33152;SDS011;19509;43.862;26.176;2024-02-26T02:17:05;0.80;;;0.80;;
33152;SDS011;19509;43.862;26.176;2024-02-26T02:19:30;0.87;;;0.87;;
33152;SDS011;19509;43.862;26.176;2024-02-26T02:21:55;0.90;;;0.90;;
33152;SDS011;19509;43.862;26.176;2024-02-26T02:24:21;0.90;;;0.90;;
33152;SDS011;19509;43.862;26.176;2024-02-26T02:26:46;0.90;;;0.90;;
33152;SDS011;19509;43.862;26.176;2024-02-26T02:29:12;0.90;;;0.90;;
33152;SDS011;19509;43.862;26.176;2024-02-26T02:31:37;0.80;;;0.80;;
33152;SDS011;19509;43.862;26.176;2024-02-26T02:34:03;1.00;;;1.00;;
33152;SDS011;19509;43.862;26.176;2024-02-26T02:36:28;0.87;;;0.87;;
33152;SDS011;19509;43.862;26.176;2024-02-26T02:38:54;0.90;;;0.90;;
33152;SDS011;19509;43.862;26.176;2024-02-26T02:41:19;0.90;;;0.90;;
33152;SDS011;19509;43.862;26.176;2024-02-26T02:43:45;0.87;;;0.87;;
33152;SDS011;19509;43.862;26.176;2024-02-26T02:46:10;0.90;;;0.90;;
33152;SDS011;19509;43.862;26.176;2024-02-26T02:48:38;0.80;;;0.80;;
33152;SDS011;19509;43.862;26.176;2024-02-26T02:51:04;0.90;;;0.90;;
33152;SDS011;19509;43.862;26.176;2024-02-26T02:53:29;0.90;;;0.90;;
33152;SDS011;19509;43.862;26.176;2024-02-26T02:55:55;0.80;;;0.80;;
33152;SDS011;19509;43.862;26.176;2024-02-26T02:58:20;0.90;;;0.90;;
33152;SDS011;19509;43.862;26.176;2024-02-26T03:00:46;0.90;;;0.90;;
33152;SDS011;19509;43.862;26.176;2024-02-26T03:03:11;0.93;;;0.93;;
33152;SDS011;19509;43.862;26.176;2024-02-26T03:05:37;0.80;;;0.80;;
33152;SDS011;19509;43.862;26.176;2024-02-26T03:08:02;1.00;;;1.00;;
33152;SDS011;19509;43.862;26.176;2024-02-26T03:10:27;1.00;;;1.00;;
33152;SDS011;19509;43.862;26.176;2024-02-26T03:12:53;1.00;;;1.00;;
33152;SDS011;19509;43.862;26.176;2024-02-26T03:15:18;0.90;;;0.90;;
33152;SDS011;19509;43.862;26.176;2024-02-26T03:17:44;0.80;;;0.80;;
33152;SDS011;19509;43.862;26.176;2024-02-26T03:20:09;1.07;;;1.07;;
33152;SDS011;19509;43.862;26.176;2024-02-26T03:22:35;1.00;;;1.00;;
33152;SDS011;19509;43.862;26.176;2024-02-26T03:25:00;0.87;;;0.87;;
33152;SDS011;19509;43.862;26.176;2024-02-26T03:27:26;0.83;;;0.83;;
33152;SDS011;19509;43.862;26.176;2024-02-26T03:29:51;0.90;;;0.90;;
33152;SDS011;19509;43.862;26.176;2024-02-26T03:32:17;1.13;;;1.13;;
33152;SDS011;19509;43.862;26.176;2024-02-26T03:34:43;0.90;;;0.90;;
33152;SDS011;19509;43.862;26.176;2024-02-26T03:37:09;0.90;;;0.90;;
33152;SDS011;19509;43.862;26.176;2024-02-26T03:39:35;0.90;;;0.90;;
33152;SDS011;19509;43.862;26.176;2024-02-26T03:42:01;1.20;;;1.20;;
33152;SDS011;19509;43.862;26.176;2024-02-26T03:44:27;0.83;;;0.83;;
33152;SDS011;19509;43.862;26.176;2024-02-26T03:46:52;0.93;;;0.93;;
33152;SDS011;19509;43.862;26.176;2024-02-26T03:49:17;0.90;;;0.90;;
33152;SDS011;19509;43.862;26.176;2024-02-26T03:51:43;1.00;;;1.00;;
33152;SDS011;19509;43.862;26.176;2024-02-26T03:54:08;0.80;;;0.80;;
33152;SDS011;19509;43.862;26.176;2024-02-26T03:56:34;0.90;;;0.90;;
33152;SDS011;19509;43.862;26.176;2024-02-26T03:58:59;0.97;;;0.97;;
33152;SDS011;19509;43.862;26.176;2024-02-26T04:01:27;1.03;;;1.03;;
33152;SDS011;19509;43.862;26.176;2024-02-26T04:03:52;1.00;;;1.00;;
33152;SDS011;19509;43.862;26.176;2024-02-26T04:06:17;1.13;;;1.13;;
33152;SDS011;19509;43.862;26.176;2024-02-26T04:08:45;0.80;;;0.80;;
33152;SDS011;19509;43.862;26.176;2024-02-26T04:11:11;0.90;;;0.90;;
33152;SDS011;19509;43.862;26.176;2024-02-26T04:13:36;0.93;;;0.93;;
33152;SDS011;19509;43.862;26.176;2024-02-26T04:16:05;0.80;;;0.80;;
33152;SDS011;19509;43.862;26.176;2024-02-26T04:18:31;1.00;;;1.00;;
33152;SDS011;19509;43.862;26.176;2024-02-26T04:20:56;0.97;;;0.97;;
33152;SDS011;19509;43.862;26.176;2024-02-26T04:23:22;1.00;;;1.00;;
33152;SDS011;19509;43.862;26.176;2024-02-26T04:25:47;0.90;;;0.90;;
33152;SDS011;19509;43.862;26.176;2024-02-26T04:28:13;0.90;;;0.90;;
33152;SDS011;19509;43.862;26.176;2024-02-26T04:30:38;1.00;;;1.00;;
33152;SDS011;19509;43.862;26.176;2024-02-26T04:33:04;0.80;;;0.80;;
33152;SDS011;19509;43.862;26.176;2024-02-26T04:35:30;0.90;;;0.90;;
33152;SDS011;19509;43.862;26.176;2024-02-26T04:37:55;1.17;;;1.17;;
33152;SDS011;19509;43.862;26.176;2024-02-26T04:40:21;1.13;;;1.13;;
33152;SDS011;19509;43.862;26.176;2024-02-26T04:42:46;1.20;;;1.20;;
33152;SDS011;19509;43.862;26.176;2024-02-26T04:45:12;0.90;;;0.90;;
33152;SDS011;19509;43.862;26.176;2024-02-26T04:47:37;1.27;;;1.27;;
33152;SDS011;19509;43.862;26.176;2024-02-26T04:50:02;1.07;;;1.07;;
33152;SDS011;19509;43.862;26.176;2024-02-26T04:52:28;0.97;;;0.97;;
33152;SDS011;19509;43.862;26.176;2024-02-26T04:54:53;1.20;;;1.20;;
33152;SDS011;19509;43.862;26.176;2024-02-26T04:57:20;1.00;;;1.00;;
33152;SDS011;19509;43.862;26.176;2024-02-26T04:59:45;0.80;;;0.80;;
33152;SDS011;19509;43.862;26.176;2024-02-26T05:02:11;1.00;;;1.00;;
33152;SDS011;19509;43.862;26.176;2024-02-26T05:04:36;0.90;;;0.90;;
33152;SDS011;19509;43.862;26.176;2024-02-26T05:07:02;1.10;;;1.10;;
33152;SDS011;19509;43.862;26.176;2024-02-26T05:09:27;1.03;;;1.03;;
33152;SDS011;19509;43.862;26.176;2024-02-26T05:11:52;1.10;;;1.10;;
33152;SDS011;19509;43.862;26.176;2024-02-26T05:14:18;1.00;;;1.00;;
33152;SDS011;19509;43.862;26.176;2024-02-26T05:16:43;1.10;;;1.10;;
33152;SDS011;19509;43.862;26.176;2024-02-26T05:19:09;1.10;;;1.10;;
33152;SDS011;19509;43.862;26.176;2024-02-26T05:21:34;1.20;;;1.20;;
33152;SDS011;19509;43.862;26.176;2024-02-26T05:24:00;1.10;;;1.10;;
33152;SDS011;19509;43.862;26.176;2024-02-26T05:26:25;1.37;;;1.37;;
33152;SDS011;19509;43.862;26.176;2024-02-26T05:28:51;1.00;;;1.00;;
33152;SDS011;19509;43.862;26.176;2024-02-26T05:31:16;1.20;;;1.20;;
33152;SDS011;19509;43.862;26.176;2024-02-26T05:33:42;1.33;;;1.33;;
33152;SDS011;19509;43.862;26.176;2024-02-26T05:36:07;2.20;;;2.20;;
33152;SDS011;19509;43.862;26.176;2024-02-26T05:38:32;1.90;;;1.90;;
33152;SDS011;19509;43.862;26.176;2024-02-26T05:40:58;1.17;;;1.17;;
33152;SDS011;19509;43.862;26.176;2024-02-26T05:43:24;1.33;;;1.33;;
33152;SDS011;19509;43.862;26.176;2024-02-26T05:45:49;1.20;;;1.20;;
33152;SDS011;19509;43.862;26.176;2024-02-26T05:48:15;1.00;;;1.00;;
33152;SDS011;19509;43.862;26.176;2024-02-26T05:50:40;1.00;;;1.00;;
33152;SDS011;19509;43.862;26.176;2024-02-26T05:53:06;0.90;;;0.90;;
33152;SDS011;19509;43.862;26.176;2024-02-26T05:55:31;0.93;;;0.93;;
33152;SDS011;19509;43.862;26.176;2024-02-26T05:57:56;0.90;;;0.90;;
33152;SDS011;19509;43.862;26.176;2024-02-26T06:00:22;0.90;;;0.90;;
33152;SDS011;19509;43.862;26.176;2024-02-26T06:02:47;0.90;;;0.90;;
33152;SDS011;19509;43.862;26.176;2024-02-26T06:05:12;1.00;;;1.00;;
33152;SDS011;19509;43.862;26.176;2024-02-26T06:07:38;1.10;;;1.10;;
33152;SDS011;19509;43.862;26.176;2024-02-26T06:10:03;0.90;;;0.90;;
33152;SDS011;19509;43.862;26.176;2024-02-26T06:12:29;1.13;;;1.13;;
33152;SDS011;19509;43.862;26.176;2024-02-26T06:14:56;1.10;;;1.10;;
33152;SDS011;19509;43.862;26.176;2024-02-26T06:17:21;0.90;;;0.90;;
33152;SDS011;19509;43.862;26.176;2024-02-26T06:19:46;1.10;;;1.10;;
33152;SDS011;19509;43.862;26.176;2024-02-26T06:22:11;0.90;;;0.90;;
33152;SDS011;19509;43.862;26.176;2024-02-26T06:24:37;0.90;;;0.90;;
33152;SDS011;19509;43.862;26.176;2024-02-26T06:27:03;0.90;;;0.90;;
33152;SDS011;19509;43.862;26.176;2024-02-26T06:29:28;1.10;;;1.10;;
33152;SDS011;19509;43.862;26.176;2024-02-26T06:31:53;1.30;;;1.30;;
33152;SDS011;19509;43.862;26.176;2024-02-26T06:34:19;1.13;;;1.13;;
33152;SDS011;19509;43.862;26.176;2024-02-26T06:36:44;1.20;;;1.20;;
33152;SDS011;19509;43.862;26.176;2024-02-26T06:39:09;1.60;;;1.60;;
33152;SDS011;19509;43.862;26.176;2024-02-26T06:41:35;1.20;;;1.20;;
33152;SDS011;19509;43.862;26.176;2024-02-26T06:44:01;1.07;;;1.07;;
33152;SDS011;19509;43.862;26.176;2024-02-26T06:46:27;0.90;;;0.90;;
33152;SDS011;19509;43.862;26.176;2024-02-26T06:48:55;1.00;;;1.00;;
33152;SDS011;19509;43.862;26.176;2024-02-26T06:51:21;0.90;;;0.90;;
33152;SDS011;19509;43.862;26.176;2024-02-26T06:53:46;1.20;;;1.20;;
33152;SDS011;19509;43.862;26.176;2024-02-26T06:56:11;1.10;;;1.10;;
33152;SDS011;19509;43.862;26.176;2024-02-26T06:58:37;1.07;;;1.07;;
33152;SDS011;19509;43.862;26.176;2024-02-26T07:01:02;0.80;;;0.80;;
33152;SDS011;19509;43.862;26.176;2024-02-26T07:03:28;0.90;;;0.90;;
33152;SDS011;19509;43.862;26.176;2024-02-26T07:05:54;0.80;;;0.80;;
33152;SDS011;19509;43.862;26.176;2024-02-26T07:08:19;0.80;;;0.80;;
33152;SDS011;19509;43.862;26.176;2024-02-26T07:10:46;0.90;;;0.90;;
33152;SDS011;19509;43.862;26.176;2024-02-26T07:13:11;0.80;;;0.80;;
33152;SDS011;19509;43.862;26.176;2024-02-26T07:15:37;1.03;;;0.90;;
33152;SDS011;19509;43.862;26.176;2024-02-26T07:18:02;0.90;;;0.90;;
33152;SDS011;19509;43.862;26.176;2024-02-26T07:20:31;0.70;;;0.70;;
33152;SDS011;19509;43.862;26.176;2024-02-26T07:22:56;0.77;;;0.77;;
33152;SDS011;19509;43.862;26.176;2024-02-26T07:25:22;0.80;;;0.80;;
33152;SDS011;19509;43.862;26.176;2024-02-26T07:27:48;0.80;;;0.80;;
33152;SDS011;19509;43.862;26.176;2024-02-26T07:30:13;0.80;;;0.80;;
33152;SDS011;19509;43.862;26.176;2024-02-26T07:32:39;0.73;;;0.73;;
33152;SDS011;19509;43.862;26.176;2024-02-26T07:35:05;0.80;;;0.80;;
33152;SDS011;19509;43.862;26.176;2024-02-26T07:37:30;0.80;;;0.80;;
33152;SDS011;19509;43.862;26.176;2024-02-26T07:39:56;0.77;;;0.77;;
33152;SDS011;19509;43.862;26.176;2024-02-26T07:42:21;0.80;;;0.80;;
33152;SDS011;19509;43.862;26.176;2024-02-26T07:44:46;0.70;;;0.70;;
33152;SDS011;19509;43.862;26.176;2024-02-26T07:47:12;0.90;;;0.90;;
33152;SDS011;19509;43.862;26.176;2024-02-26T07:49:37;1.03;;;1.03;;
33152;SDS011;19509;43.862;26.176;2024-02-26T07:52:03;1.13;;;1.13;;
33152;SDS011;19509;43.862;26.176;2024-02-26T07:54:28;0.90;;;0.90;;
33152;SDS011;19509;43.862;26.176;2024-02-26T07:56:54;0.90;;;0.90;;
33152;SDS011;19509;43.862;26.176;2024-02-26T07:59:19;0.90;;;0.90;;
33152;SDS011;19509;43.862;26.176;2024-02-26T08:01:48;0.90;;;0.90;;
33152;SDS011;19509;43.862;26.176;2024-02-26T08:04:14;0.90;;;0.90;;
33152;SDS011;19509;43.862;26.176;2024-02-26T08:06:39;0.90;;;0.90;;
33152;SDS011;19509;43.862;26.176;2024-02-26T08:09:05;0.90;;;0.90;;
33152;SDS011;19509;43.862;26.176;2024-02-26T08:11:30;1.17;;;1.17;;
33152;SDS011;19509;43.862;26.176;2024-02-26T08:13:56;1.10;;;1.10;;
33152;SDS011;19509;43.862;26.176;2024-02-26T08:16:21;1.10;;;1.10;;
33152;SDS011;19509;43.862;26.176;2024-02-26T08:18:46;1.00;;;1.00;;
33152;SDS011;19509;43.862;26.176;2024-02-26T08:21:12;1.10;;;1.10;;
33152;SDS011;19509;43.862;26.176;2024-02-26T08:23:37;1.23;;;1.23;;
33152;SDS011;19509;43.862;26.176;2024-02-26T08:26:03;0.80;;;0.80;;
33152;SDS011;19509;43.862;26.176;2024-02-26T08:28:32;0.90;;;0.90;;
33152;SDS011;19509;43.862;26.176;2024-02-26T08:30:57;1.10;;;1.10;;
33152;SDS011;19509;43.862;26.176;2024-02-26T08:33:23;0.90;;;0.90;;
33152;SDS011;19509;43.862;26.176;2024-02-26T08:35:48;0.80;;;0.80;;
33152;SDS011;19509;43.862;26.176;2024-02-26T08:38:14;0.90;;;0.90;;
33152;SDS011;19509;43.862;26.176;2024-02-26T08:40:39;1.00;;;1.00;;
33152;SDS011;19509;43.862;26.176;2024-02-26T08:43:05;0.90;;;0.90;;
33152;SDS011;19509;43.862;26.176;2024-02-26T08:45:30;0.90;;;0.90;;
33152;SDS011;19509;43.862;26.176;2024-02-26T08:47:55;0.80;;;0.80;;
33152;SDS011;19509;43.862;26.176;2024-02-26T08:50:21;0.97;;;0.97;;
33152;SDS011;19509;43.862;26.176;2024-02-26T08:52:46;0.70;;;0.70;;
33152;SDS011;19509;43.862;26.176;2024-02-26T08:55:15;0.80;;;0.80;;
33152;SDS011;19509;43.862;26.176;2024-02-26T08:57:41;0.87;;;0.87;;
33152;SDS011;19509;43.862;26.176;2024-02-26T09:00:06;0.70;;;0.70;;
33152;SDS011;19509;43.862;26.176;2024-02-26T09:02:32;0.73;;;0.73;;
33152;SDS011;19509;43.862;26.176;2024-02-26T09:04:57;0.80;;;0.80;;
33152;SDS011;19509;43.862;26.176;2024-02-26T09:07:23;0.70;;;0.70;;
33152;SDS011;19509;43.862;26.176;2024-02-26T09:09:48;0.70;;;0.70;;
33152;SDS011;19509;43.862;26.176;2024-02-26T09:12:13;0.80;;;0.80;;
33152;SDS011;19509;43.862;26.176;2024-02-26T09:14:39;0.70;;;0.70;;
33152;SDS011;19509;43.862;26.176;2024-02-26T09:17:04;0.73;;;0.73;;
33152;SDS011;19509;43.862;26.176;2024-02-26T09:19:31;1.00;;;1.00;;
33152;SDS011;19509;43.862;26.176;2024-02-26T09:21:56;0.70;;;0.70;;
33152;SDS011;19509;43.862;26.176;2024-02-26T09:24:23;0.83;;;0.83;;
33152;SDS011;19509;43.862;26.176;2024-02-26T09:26:48;0.70;;;0.70;;
33152;SDS011;19509;43.862;26.176;2024-02-26T09:29:14;0.80;;;0.80;;
33152;SDS011;19509;43.862;26.176;2024-02-26T09:31:39;0.80;;;0.80;;
33152;SDS011;19509;43.862;26.176;2024-02-26T09:34:06;1.00;;;1.00;;
33152;SDS011;19509;43.862;26.176;2024-02-26T09:36:31;0.80;;;0.80;;
33152;SDS011;19509;43.862;26.176;2024-02-26T09:38:57;0.87;;;0.87;;
33152;SDS011;19509;43.862;26.176;2024-02-26T09:41:22;0.80;;;0.80;;
33152;SDS011;19509;43.862;26.176;2024-02-26T09:43:48;0.80;;;0.80;;
33152;SDS011;19509;43.862;26.176;2024-02-26T09:46:13;0.87;;;0.87;;
33152;SDS011;19509;43.862;26.176;2024-02-26T09:48:40;0.73;;;0.73;;
33152;SDS011;19509;43.862;26.176;2024-02-26T09:51:07;0.80;;;0.80;;
33152;SDS011;19509;43.862;26.176;2024-02-26T09:53:34;0.77;;;0.77;;
33152;SDS011;19509;43.862;26.176;2024-02-26T09:56:04;0.87;;;0.87;;
33152;SDS011;19509;43.862;26.176;2024-02-26T09:58:30;0.80;;;0.80;;
33152;SDS011;19509;43.862;26.176;2024-02-26T10:00:57;0.63;;;0.63;;
33152;SDS011;19509;43.862;26.176;2024-02-26T10:03:26;0.80;;;0.80;;
33152;SDS011;19509;43.862;26.176;2024-02-26T10:05:52;0.80;;;0.80;;
33152;SDS011;19509;43.862;26.176;2024-02-26T10:08:20;0.80;;;0.80;;
33152;SDS011;19509;43.862;26.176;2024-02-26T10:10:47;0.70;;;0.70;;
33152;SDS011;19509;43.862;26.176;2024-02-26T10:13:12;0.80;;;0.80;;
33152;SDS011;19509;43.862;26.176;2024-02-26T10:15:38;0.70;;;0.70;;
33152;SDS011;19509;43.862;26.176;2024-02-26T10:18:07;0.70;;;0.70;;
33152;SDS011;19509;43.862;26.176;2024-02-26T10:20:32;0.73;;;0.73;;
33152;SDS011;19509;43.862;26.176;2024-02-26T10:22:58;0.70;;;0.70;;
33152;SDS011;19509;43.862;26.176;2024-02-26T10:25:23;0.90;;;0.90;;
33152;SDS011;19509;43.862;26.176;2024-02-26T10:27:49;0.80;;;0.80;;
33152;SDS011;19509;43.862;26.176;2024-02-26T10:32:46;0.70;;;0.70;;
33152;SDS011;19509;43.862;26.176;2024-02-26T10:35:12;0.73;;;0.73;;
33152;SDS011;19509;43.862;26.176;2024-02-26T10:37:38;0.80;;;0.80;;
33152;SDS011;19509;43.862;26.176;2024-02-26T10:40:04;0.60;;;0.60;;
33152;SDS011;19509;43.862;26.176;2024-02-26T10:42:30;0.97;;;0.97;;
33152;SDS011;19509;43.862;26.176;2024-02-26T10:44:55;0.80;;;0.80;;
33152;SDS011;19509;43.862;26.176;2024-02-26T10:47:22;0.80;;;0.80;;
33152;SDS011;19509;43.862;26.176;2024-02-26T10:49:48;0.70;;;0.70;;
33152;SDS011;19509;43.862;26.176;2024-02-26T10:52:15;0.70;;;0.70;;
33152;SDS011;19509;43.862;26.176;2024-02-26T10:54:41;1.00;;;1.00;;
33152;SDS011;19509;43.862;26.176;2024-02-26T10:57:06;0.70;;;0.70;;
33152;SDS011;19509;43.862;26.176;2024-02-26T10:59:33;0.70;;;0.70;;
33152;SDS011;19509;43.862;26.176;2024-02-26T11:02:00;0.80;;;0.80;;
33152;SDS011;19509;43.862;26.176;2024-02-26T11:04:25;0.90;;;0.90;;
33152;SDS011;19509;43.862;26.176;2024-02-26T11:06:52;0.70;;;0.70;;
33152;SDS011;19509;43.862;26.176;2024-02-26T11:09:20;0.80;;;0.80;;
33152;SDS011;19509;43.862;26.176;2024-02-26T11:11:45;0.80;;;0.80;;
33152;SDS011;19509;43.862;26.176;2024-02-26T11:14:11;0.80;;;0.80;;
33152;SDS011;19509;43.862;26.176;2024-02-26T11:16:38;0.70;;;0.70;;
33152;SDS011;19509;43.862;26.176;2024-02-26T11:19:04;0.80;;;0.80;;
33152;SDS011;19509;43.862;26.176;2024-02-26T11:21:32;0.83;;;0.83;;
33152;SDS011;19509;43.862;26.176;2024-02-26T11:24:14;0.80;;;0.80;;
33152;SDS011;19509;43.862;26.176;2024-02-26T11:26:44;1.00;;;1.00;;
33152;SDS011;19509;43.862;26.176;2024-02-26T11:29:14;0.70;;;0.70;;
33152;SDS011;19509;43.862;26.176;2024-02-26T11:31:40;0.80;;;0.80;;
33152;SDS011;19509;43.862;26.176;2024-02-26T11:34:06;0.70;;;0.70;;
33152;SDS011;19509;43.862;26.176;2024-02-26T11:36:32;0.80;;;0.80;;
33152;SDS011;19509;43.862;26.176;2024-02-26T11:38:58;0.83;;;0.83;;
33152;SDS011;19509;43.862;26.176;2024-02-26T11:41:23;0.77;;;0.77;;
33152;SDS011;19509;43.862;26.176;2024-02-26T11:43:52;0.73;;;0.73;;
33152;SDS011;19509;43.862;26.176;2024-02-26T11:46:28;0.70;;;0.70;;
33152;SDS011;19509;43.862;26.176;2024-02-26T11:48:58;0.80;;;0.80;;
33152;SDS011;19509;43.862;26.176;2024-02-26T11:51:27;0.70;;;0.70;;
33152;SDS011;19509;43.862;26.176;2024-02-26T11:53:53;0.80;;;0.80;;
33152;SDS011;19509;43.862;26.176;2024-02-26T11:58:44;0.70;;;0.70;;
33152;SDS011;19509;43.862;26.176;2024-02-26T12:03:54;0.80;;;0.80;;
33152;SDS011;19509;43.862;26.176;2024-02-26T12:06:20;0.80;;;0.80;;
33152;SDS011;19509;43.862;26.176;2024-02-26T12:08:46;0.90;;;0.90;;
33152;SDS011;19509;43.862;26.176;2024-02-26T12:11:14;0.80;;;0.80;;
33152;SDS011;19509;43.862;26.176;2024-02-26T12:13:41;0.90;;;0.90;;
33152;SDS011;19509;43.862;26.176;2024-02-26T12:16:06;0.90;;;0.90;;
33152;SDS011;19509;43.862;26.176;2024-02-26T12:18:32;0.70;;;0.70;;
33152;SDS011;19509;43.862;26.176;2024-02-26T12:21:00;0.90;;;0.90;;
33152;SDS011;19509;43.862;26.176;2024-02-26T12:23:28;0.70;;;0.70;;
33152;SDS011;19509;43.862;26.176;2024-02-26T12:25:58;0.73;;;0.73;;
33152;SDS011;19509;43.862;26.176;2024-02-26T12:28:27;0.80;;;0.80;;
33152;SDS011;19509;43.862;26.176;2024-02-26T12:30:52;0.80;;;0.80;;
33152;SDS011;19509;43.862;26.176;2024-02-26T12:33:17;0.80;;;0.80;;
33152;SDS011;19509;43.862;26.176;2024-02-26T12:35:43;0.80;;;0.80;;
33152;SDS011;19509;43.862;26.176;2024-02-26T12:38:12;0.80;;;0.80;;
33152;SDS011;19509;43.862;26.176;2024-02-26T12:40:39;0.70;;;0.70;;
33152;SDS011;19509;43.862;26.176;2024-02-26T12:43:04;0.90;;;0.90;;
33152;SDS011;19509;43.862;26.176;2024-02-26T12:45:30;0.70;;;0.70;;
33152;SDS011;19509;43.862;26.176;2024-02-26T12:47:55;0.90;;;0.90;;
33152;SDS011;19509;43.862;26.176;2024-02-26T12:50:21;0.70;;;0.70;;
33152;SDS011;19509;43.862;26.176;2024-02-26T12:52:47;0.93;;;0.93;;
33152;SDS011;19509;43.862;26.176;2024-02-26T12:55:14;0.80;;;0.80;;
33152;SDS011;19509;43.862;26.176;2024-02-26T12:57:40;0.87;;;0.87;;
33152;SDS011;19509;43.862;26.176;2024-02-26T13:00:08;0.80;;;0.80;;
33152;SDS011;19509;43.862;26.176;2024-02-26T13:02:36;0.80;;;0.80;;
33152;SDS011;19509;43.862;26.176;2024-02-26T13:05:05;0.80;;;0.80;;
33152;SDS011;19509;43.862;26.176;2024-02-26T13:07:31;0.70;;;0.70;;
33152;SDS011;19509;43.862;26.176;2024-02-26T13:09:56;0.80;;;0.80;;
33152;SDS011;19509;43.862;26.176;2024-02-26T13:12:22;0.70;;;0.70;;
33152;SDS011;19509;43.862;26.176;2024-02-26T13:14:57;0.80;;;0.80;;
33152;SDS011;19509;43.862;26.176;2024-02-26T13:17:23;0.90;;;0.90;;
33152;SDS011;19509;43.862;26.176;2024-02-26T13:19:50;0.80;;;0.80;;
33152;SDS011;19509;43.862;26.176;2024-02-26T13:22:15;0.90;;;0.90;;
33152;SDS011;19509;43.862;26.176;2024-02-26T13:24:41;0.60;;;0.60;;
33152;SDS011;19509;43.862;26.176;2024-02-26T13:27:07;1.13;;;1.13;;
33152;SDS011;19509;43.862;26.176;2024-02-26T13:29:33;1.10;;;1.10;;
33152;SDS011;19509;43.862;26.176;2024-02-26T13:31:58;0.90;;;0.90;;
33152;SDS011;19509;43.862;26.176;2024-02-26T13:34:24;0.80;;;0.80;;
33152;SDS011;19509;43.862;26.176;2024-02-26T13:36:50;0.70;;;0.70;;
33152;SDS011;19509;43.862;26.176;2024-02-26T13:39:21;0.80;;;0.80;;
33152;SDS011;19509;43.862;26.176;2024-02-26T13:41:46;0.70;;;0.70;;
33152;SDS011;19509;43.862;26.176;2024-02-26T13:44:12;0.60;;;0.60;;
33152;SDS011;19509;43.862;26.176;2024-02-26T13:46:37;0.60;;;0.60;;
33152;SDS011;19509;43.862;26.176;2024-02-26T13:49:03;0.60;;;0.60;;
33152;SDS011;19509;43.862;26.176;2024-02-26T13:51:28;1.03;;;1.03;;
33152;SDS011;19509;43.862;26.176;2024-02-26T13:54:00;0.70;;;0.70;;
33152;SDS011;19509;43.862;26.176;2024-02-26T13:56:27;0.70;;;0.70;;
33152;SDS011;19509;43.862;26.176;2024-02-26T13:58:53;0.60;;;0.60;;
33152;SDS011;19509;43.862;26.176;2024-02-26T14:01:18;0.60;;;0.60;;
33152;SDS011;19509;43.862;26.176;2024-02-26T14:03:44;0.70;;;0.70;;
33152;SDS011;19509;43.862;26.176;2024-02-26T14:06:10;0.60;;;0.60;;
33152;SDS011;19509;43.862;26.176;2024-02-26T14:08:35;0.70;;;0.70;;
33152;SDS011;19509;43.862;26.176;2024-02-26T14:11:00;0.60;;;0.60;;
33152;SDS011;19509;43.862;26.176;2024-02-26T14:13:26;0.60;;;0.60;;
33152;SDS011;19509;43.862;26.176;2024-02-26T14:15:51;0.80;;;0.80;;
33152;SDS011;19509;43.862;26.176;2024-02-26T14:18:16;0.60;;;0.60;;
33152;SDS011;19509;43.862;26.176;2024-02-26T14:20:42;0.80;;;0.80;;
33152;SDS011;19509;43.862;26.176;2024-02-26T14:23:09;0.90;;;0.90;;
33152;SDS011;19509;43.862;26.176;2024-02-26T14:25:35;0.70;;;0.70;;
33152;SDS011;19509;43.862;26.176;2024-02-26T14:28:01;0.70;;;0.70;;
33152;SDS011;19509;43.862;26.176;2024-02-26T14:30:26;0.70;;;0.70;;
33152;SDS011;19509;43.862;26.176;2024-02-26T14:32:52;0.70;;;0.70;;